createdAt,value
2022-10-19T00:02:24.745Z,49.56
2022-10-19T00:04:51.622Z,49.59
2022-10-19T00:07:18.247Z,49.64
2022-10-19T00:09:44.966Z,49.68
2022-10-19T00:12:12.982Z,49.73
2022-10-19T00:14:39.577Z,49.79
2022-10-19T00:17:06.271Z,49.87
2022-10-19T00:19:33.226Z,49.92
2022-10-19T00:21:59.854Z,49.96
2022-10-19T00:24:26.549Z,50.03
2022-10-19T00:26:53.475Z,50.05
2022-10-19T00:29:20.126Z,50.08
2022-10-19T00:31:49.794Z,50.21
2022-10-19T00:34:17.083Z,50.33
2022-10-19T00:36:44.072Z,50.30
2022-10-19T00:39:13.910Z,50.31
2022-10-19T00:41:41.097Z,50.41
2022-10-19T00:44:13.709Z,50.45
2022-10-19T00:46:44.138Z,50.54
2022-10-19T00:49:16.012Z,50.58
2022-10-19T00:51:47.653Z,50.64
2022-10-19T00:54:16.656Z,50.69
2022-10-19T00:56:47.563Z,50.81
2022-10-19T00:59:18.728Z,50.86
2022-10-19T01:01:46.953Z,51.01
2022-10-19T01:04:14.406Z,51.12
2022-10-19T01:06:42.289Z,51.11
2022-10-19T01:09:09.469Z,51.21
2022-10-19T01:12:07.554Z,51.22
2022-10-19T01:14:49.446Z,51.37
2022-10-19T01:17:26.671Z,51.46
2022-10-19T01:20:22.668Z,51.58
2022-10-19T01:23:10.223Z,51.63
2022-10-19T01:25:48.145Z,51.68
2022-10-19T01:28:48.346Z,51.74
2022-10-19T01:31:32.908Z,51.93
2022-10-19T01:34:38.822Z,52.01
2022-10-19T01:37:22.906Z,52.06
2022-10-19T01:40:03.281Z,52.15
2022-10-19T01:42:48.996Z,52.26
2022-10-19T01:45:19.302Z,52.26
2022-10-19T01:47:53.363Z,52.43
2022-10-19T01:50:31.725Z,52.52
2022-10-19T01:52:59.844Z,52.69
2022-10-19T01:55:27.727Z,52.72
2022-10-19T01:58:02.320Z,52.80
2022-10-19T02:00:31.430Z,52.97
2022-10-19T02:03:00.590Z,53.11
2022-10-19T02:05:32.427Z,53.22
2022-10-19T02:08:11.442Z,53.37
2022-10-19T02:10:41.613Z,53.47
2022-10-19T02:13:09.486Z,53.50
2022-10-19T02:15:40.950Z,53.58
2022-10-19T02:18:10.351Z,53.83
2022-10-19T02:20:37.610Z,53.95
2022-10-19T02:23:05.776Z,53.97
2022-10-19T02:25:33.790Z,54.08
2022-10-19T02:28:03.504Z,54.16
2022-10-19T02:30:30.375Z,54.36
2022-10-19T02:32:57.318Z,54.50
2022-10-19T02:35:23.973Z,54.52
2022-10-19T02:37:50.986Z,54.62
2022-10-19T02:40:18.203Z,54.76
2022-10-19T02:42:55.161Z,55.04
2022-10-19T02:45:25.805Z,55.45
2022-10-19T02:47:58.136Z,55.34
2022-10-19T02:50:25.568Z,55.47
2022-10-19T02:52:52.452Z,55.42
2022-10-19T02:55:19.202Z,55.58
2022-10-19T02:57:46.152Z,55.71
2022-10-19T03:00:12.980Z,55.79
2022-10-19T03:02:39.633Z,55.78
2022-10-19T03:05:06.977Z,56.01
2022-10-19T03:07:33.809Z,56.06
2022-10-19T03:10:00.720Z,56.22
2022-10-19T03:12:27.657Z,56.22
2022-10-19T03:14:54.333Z,56.38
2022-10-19T03:17:20.981Z,56.61
2022-10-19T03:19:47.871Z,56.56
2022-10-19T03:22:15.021Z,56.64
2022-10-19T03:24:41.725Z,56.71
2022-10-19T03:27:08.750Z,56.80
2022-10-19T03:29:35.391Z,56.84
2022-10-19T03:32:02.133Z,56.97
2022-10-19T03:34:29.376Z,57.27
2022-10-19T03:36:56.794Z,57.43
2022-10-19T03:39:23.449Z,57.45
2022-10-19T03:41:50.616Z,57.63
2022-10-19T03:44:17.190Z,57.62
2022-10-19T03:46:43.970Z,57.74
2022-10-19T03:49:11.932Z,57.92
2022-10-19T03:51:38.694Z,58.01
2022-10-19T03:54:08.232Z,58.09
2022-10-19T03:56:35.988Z,58.36
2022-10-19T03:59:04.609Z,58.38
2022-10-19T04:01:34.182Z,58.60
2022-10-19T04:04:04.174Z,58.82
2022-10-19T04:06:33.509Z,58.91
2022-10-19T04:09:00.755Z,59.09
2022-10-19T04:11:29.858Z,59.06
2022-10-19T04:13:58.174Z,59.38
2022-10-19T04:16:26.163Z,59.26
2022-10-19T04:18:53.110Z,59.34
2022-10-19T04:21:25.108Z,59.46
2022-10-19T04:23:59.232Z,59.90
2022-10-19T04:26:26.601Z,59.94
2022-10-19T04:28:53.710Z,59.75
2022-10-19T04:31:20.515Z,59.79
2022-10-19T04:33:47.434Z,60.01
2022-10-19T04:36:14.052Z,60.06
2022-10-19T04:38:40.755Z,60.30
2022-10-19T04:41:12.278Z,60.33
2022-10-19T04:43:39.392Z,60.62
2022-10-19T04:46:09.484Z,60.56
2022-10-19T04:48:37.927Z,60.82
2022-10-19T04:51:05.528Z,61.24
2022-10-19T04:53:33.386Z,61.35
2022-10-19T04:56:03.847Z,61.48
2022-10-19T04:58:30.484Z,61.51
2022-10-19T05:00:57.192Z,61.75
2022-10-19T05:03:24.179Z,62.26
2022-10-19T05:05:50.845Z,62.32
2022-10-19T05:08:17.578Z,62.50
2022-10-19T05:10:47.595Z,62.98
2022-10-19T05:13:14.615Z,63.19
2022-10-19T05:15:41.358Z,63.33
2022-10-19T05:18:08.253Z,63.61
2022-10-19T05:20:34.970Z,63.71
2022-10-19T05:23:06.252Z,64.00
2022-10-19T05:25:34.235Z,64.14
2022-10-19T05:28:00.852Z,64.55
2022-10-19T05:30:27.499Z,64.41
2022-10-19T05:32:54.434Z,64.62
2022-10-19T05:35:22.619Z,65.02
2022-10-19T05:37:54.396Z,65.49
2022-10-19T05:40:21.373Z,66.05
2022-10-19T05:42:48.021Z,65.66
2022-10-19T05:45:14.788Z,66.42
2022-10-19T05:47:41.670Z,66.39
2022-10-19T05:50:08.701Z,66.43
2022-10-19T05:52:35.279Z,66.77
2022-10-19T05:55:02.344Z,66.36
2022-10-19T05:57:32.527Z,66.63
2022-10-19T05:59:59.480Z,66.94
2022-10-19T06:02:26.411Z,66.63
2022-10-19T06:04:53.323Z,66.88
2022-10-19T06:07:19.912Z,66.69
2022-10-19T06:09:47.716Z,66.76
2022-10-19T06:12:16.216Z,67.17
2022-10-19T06:14:43.169Z,67.09
2022-10-19T06:17:09.905Z,67.39
2022-10-19T06:19:37.131Z,67.62
2022-10-19T06:22:03.740Z,67.42
2022-10-19T06:24:30.434Z,67.31
2022-10-19T06:26:57.347Z,67.52
2022-10-19T06:29:23.959Z,67.73
2022-10-19T06:31:50.647Z,67.60
2022-10-19T06:34:17.702Z,67.77
2022-10-19T06:36:44.403Z,67.55
2022-10-19T06:39:11.145Z,67.56
2022-10-19T06:41:38.056Z,67.70
2022-10-19T06:44:07.084Z,67.42
2022-10-19T06:46:34.000Z,67.51
2022-10-19T06:49:02.267Z,67.78
2022-10-19T06:51:30.249Z,67.79
2022-10-19T06:53:57.505Z,67.62
2022-10-19T06:56:26.246Z,67.47
2022-10-19T06:58:53.446Z,67.33
2022-10-19T07:01:20.235Z,67.28
2022-10-19T07:03:47.231Z,67.14
2022-10-19T07:06:14.363Z,67.32
2022-10-19T07:08:42.638Z,67.08
2022-10-19T07:11:12.835Z,67.24
2022-10-19T07:13:39.535Z,67.27
2022-10-19T07:16:16.101Z,67.14
2022-10-19T07:18:47.497Z,67.44
2022-10-19T07:21:15.955Z,66.97
2022-10-19T07:23:44.478Z,67.07
2022-10-19T07:26:17.680Z,66.95
2022-10-19T07:28:46.493Z,67.25
2022-10-19T07:31:17.856Z,66.87
2022-10-19T07:33:44.747Z,66.75
2022-10-19T07:36:13.846Z,66.71
2022-10-19T07:38:41.185Z,66.66
2022-10-19T07:41:12.662Z,66.48
2022-10-19T07:43:40.266Z,66.74
2022-10-19T07:46:11.159Z,66.47
2022-10-19T07:48:37.883Z,66.60
2022-10-19T07:51:06.375Z,66.34
2022-10-19T07:53:34.222Z,66.52
2022-10-19T07:56:10.162Z,66.46
2022-10-19T07:58:38.366Z,66.71
2022-10-19T08:01:10.622Z,66.33
2022-10-19T08:06:25.519Z,66.71
2022-10-19T08:08:54.089Z,66.86
2022-10-19T08:11:32.620Z,66.86
2022-10-19T08:13:59.869Z,67.05
2022-10-19T08:16:39.519Z,66.63
2022-10-19T08:19:09.245Z,66.88
2022-10-19T08:21:37.760Z,66.80
2022-10-19T08:24:05.316Z,66.69
2022-10-19T08:26:33.733Z,66.68
2022-10-19T08:29:01.906Z,66.59
2022-10-19T08:31:29.734Z,66.50
2022-10-19T08:33:57.003Z,66.55
2022-10-19T08:36:24.026Z,66.49
2022-10-19T08:38:51.204Z,66.45
2022-10-19T08:41:23.192Z,66.45
2022-10-19T08:44:10.200Z,66.68
2022-10-19T08:47:02.444Z,66.63
2022-10-19T08:49:30.417Z,66.54
2022-10-19T08:52:01.911Z,66.47
2022-10-19T08:54:37.856Z,66.17
2022-10-19T08:57:33.186Z,66.43
2022-10-19T09:00:08.086Z,66.51
2022-10-19T09:03:13.695Z,66.36
2022-10-19T09:05:57.566Z,66.33
2022-10-19T09:08:24.613Z,66.14
2022-10-19T09:10:53.551Z,65.64
2022-10-19T09:13:47.265Z,65.73
2022-10-19T09:16:26.105Z,65.77
2022-10-19T09:21:40.831Z,65.44
2022-10-19T09:24:29.938Z,65.58
2022-10-19T09:27:01.202Z,65.58
2022-10-19T09:29:33.623Z,65.44
2022-10-19T09:32:03.676Z,65.36
2022-10-19T09:34:36.544Z,65.08
2022-10-19T09:37:04.145Z,65.18
2022-10-19T09:39:31.665Z,65.06
2022-10-19T09:42:04.965Z,65.11
2022-10-19T09:44:32.469Z,65.17
2022-10-19T09:47:14.344Z,65.10
2022-10-19T09:49:46.851Z,65.29
2022-10-19T09:52:37.965Z,65.31
2022-10-19T09:55:14.335Z,65.39
2022-10-19T09:57:48.958Z,65.35
2022-10-19T10:00:33.512Z,65.16
2022-10-19T10:03:00.622Z,65.16
2022-10-19T10:05:39.249Z,64.91
2022-10-19T10:08:15.758Z,65.12
2022-10-19T10:10:46.145Z,65.15
2022-10-19T10:13:21.231Z,65.00
2022-10-19T10:15:54.240Z,65.13
2022-10-19T10:18:24.809Z,64.97
2022-10-19T10:21:24.425Z,64.93
2022-10-19T10:24:01.279Z,64.98
2022-10-19T10:26:28.512Z,64.96
2022-10-19T10:28:57.871Z,64.80
2022-10-19T10:31:29.271Z,64.78
2022-10-19T10:34:12.253Z,64.97
2022-10-19T10:36:53.757Z,64.90
2022-10-19T10:39:20.757Z,64.72
2022-10-19T10:41:49.051Z,64.54
2022-10-19T10:44:23.763Z,64.47
2022-10-19T10:47:01.395Z,64.53
2022-10-19T10:49:38.572Z,64.45
2022-10-19T10:52:17.317Z,64.29
2022-10-19T10:55:04.595Z,64.07
2022-10-19T10:57:40.709Z,64.14
2022-10-19T11:00:14.107Z,63.88
2022-10-19T11:03:05.865Z,63.61
2022-10-19T11:05:38.856Z,63.29
2022-10-19T11:08:18.966Z,62.69
2022-10-19T11:11:01.092Z,62.75
2022-10-19T11:13:34.049Z,61.82
2022-10-19T11:16:06.777Z,61.34
2022-10-19T11:19:02.125Z,61.14
2022-10-19T11:21:36.499Z,61.25
2022-10-19T11:24:33.690Z,61.02
2022-10-19T11:27:26.174Z,60.83
2022-10-19T11:30:09.879Z,60.41
2022-10-19T11:32:54.962Z,60.35
2022-10-19T11:35:33.118Z,60.22
2022-10-19T11:38:18.742Z,60.07
2022-10-19T11:41:16.826Z,59.98
2022-10-19T11:43:51.391Z,59.85
2022-10-19T11:46:37.916Z,59.79
2022-10-19T11:49:29.409Z,59.75
2022-10-19T11:52:11.099Z,59.67
2022-10-19T11:54:57.994Z,59.70
2022-10-19T11:57:39.935Z,59.69
2022-10-19T12:00:37.786Z,59.51
2022-10-19T12:03:35.244Z,59.55
2022-10-19T12:06:35.402Z,59.58
2022-10-19T12:09:25.238Z,59.41
2022-10-19T12:12:03.721Z,59.30
2022-10-19T12:14:35.620Z,58.85
2022-10-19T12:17:09.104Z,58.74
2022-10-19T12:19:49.183Z,58.70
2022-10-19T12:22:21.575Z,58.55
2022-10-19T12:24:50.886Z,58.45
2022-10-19T12:27:20.361Z,58.63
2022-10-19T12:29:49.631Z,58.51
2022-10-19T12:32:19.744Z,58.46
2022-10-19T12:35:00.439Z,58.53
2022-10-19T12:37:44.592Z,58.43
2022-10-19T12:40:40.208Z,58.31
2022-10-19T12:43:31.940Z,58.38
2022-10-19T12:46:13.090Z,58.39
2022-10-19T12:48:40.122Z,58.43
2022-10-19T12:51:12.809Z,58.61
2022-10-19T12:53:48.772Z,58.53
2022-10-19T12:56:23.944Z,58.49
2022-10-19T12:59:01.503Z,58.44
2022-10-19T13:01:42.103Z,58.38
2022-10-19T13:04:12.412Z,58.26
2022-10-19T13:06:59.626Z,58.32
2022-10-19T13:09:38.376Z,58.23
2022-10-19T13:12:21.689Z,58.20
2022-10-19T13:14:57.193Z,58.12
2022-10-19T13:17:37.103Z,58.18
2022-10-19T13:20:15.847Z,58.05
2022-10-19T13:22:51.573Z,57.99
2022-10-19T13:25:35.357Z,58.01
2022-10-19T13:28:12.766Z,58.05
2022-10-19T13:30:39.442Z,58.02
2022-10-19T13:33:33.773Z,58.07
2022-10-19T13:36:00.520Z,57.85
2022-10-19T13:38:30.489Z,57.86
2022-10-19T13:41:09.170Z,57.60
2022-10-19T13:44:06.802Z,57.41
2022-10-19T13:46:58.256Z,57.42
2022-10-19T13:49:50.319Z,57.22
2022-10-19T13:52:36.561Z,57.17
2022-10-19T13:55:28.779Z,57.29
2022-10-19T13:58:14.271Z,57.01
2022-10-19T14:01:16.896Z,56.99
2022-10-19T14:04:05.474Z,56.99
2022-10-19T14:06:35.067Z,56.85
2022-10-19T14:09:34.528Z,56.87
2022-10-19T14:12:08.956Z,56.85
2022-10-19T14:14:44.193Z,56.77
2022-10-19T14:19:57.198Z,56.71
2022-10-19T14:22:25.957Z,56.64
2022-10-19T14:25:01.206Z,56.79
2022-10-19T14:27:28.097Z,56.72
2022-10-19T14:29:55.248Z,56.90
2022-10-19T14:32:30.044Z,56.87
2022-10-19T14:37:32.067Z,56.69
2022-10-19T14:40:27.752Z,56.81
2022-10-19T14:42:57.012Z,56.55
2022-10-19T14:45:32.565Z,56.67
2022-10-19T14:48:07.552Z,56.40
2022-10-19T14:50:47.654Z,56.37
2022-10-19T14:53:36.673Z,56.30
2022-10-19T14:56:13.647Z,56.23
2022-10-19T14:58:46.218Z,56.25
2022-10-19T15:01:13.313Z,56.35
2022-10-19T15:03:44.011Z,56.57
2022-10-19T15:06:29.879Z,56.50
2022-10-19T15:09:00.697Z,56.35
2022-10-19T15:11:31.078Z,56.35
2022-10-19T15:14:02.708Z,56.39
2022-10-19T15:16:42.134Z,56.43
2022-10-19T15:19:30.733Z,56.34
2022-10-19T15:22:15.091Z,56.29
2022-10-19T15:25:01.645Z,56.38
2022-10-19T15:27:35.901Z,56.43
2022-10-19T15:30:05.848Z,56.63
2022-10-19T15:32:37.981Z,56.86
2022-10-19T15:35:16.351Z,56.79
2022-10-19T15:37:45.292Z,56.90
2022-10-19T15:40:19.350Z,57.12
2022-10-19T15:42:48.742Z,57.22
2022-10-19T15:45:35.049Z,57.33
2022-10-19T15:48:11.052Z,57.19
2022-10-19T15:50:43.363Z,57.29
2022-10-19T15:53:10.252Z,57.42
2022-10-19T15:55:36.969Z,57.66
2022-10-19T15:58:03.967Z,57.77
2022-10-19T16:00:31.019Z,57.90
2022-10-19T16:02:58.418Z,58.00
2022-10-19T16:05:25.226Z,58.04
2022-10-19T16:07:51.915Z,58.08
2022-10-19T16:10:22.698Z,58.14
2022-10-19T16:12:49.767Z,58.16
2022-10-19T16:15:22.278Z,58.23
2022-10-19T16:17:54.915Z,58.25
2022-10-19T16:20:22.982Z,58.28
2022-10-19T16:22:51.250Z,58.32
2022-10-19T16:25:18.026Z,58.37
2022-10-19T16:27:44.787Z,58.48
2022-10-19T16:30:12.640Z,58.50
2022-10-19T16:35:11.631Z,58.68
2022-10-19T16:37:38.610Z,58.75
2022-10-19T16:40:05.884Z,58.85
2022-10-19T16:42:33.357Z,58.92
2022-10-19T16:45:01.215Z,58.97
2022-10-19T16:47:27.862Z,59.08
2022-10-19T16:50:00.123Z,59.48
2022-10-19T16:52:28.431Z,59.55
2022-10-19T16:54:55.073Z,59.65
2022-10-19T16:57:21.880Z,59.74
2022-10-19T17:02:24.880Z,60.00
2022-10-19T17:04:51.889Z,60.02
2022-10-19T17:07:19.300Z,60.17
2022-10-19T17:09:46.694Z,60.29
2022-10-19T17:12:15.552Z,60.32
2022-10-19T17:14:42.789Z,60.43
2022-10-19T17:17:10.846Z,60.73
2022-10-19T17:19:38.229Z,60.73
2022-10-19T17:22:05.536Z,60.92
2022-10-19T17:24:32.234Z,61.15
2022-10-19T17:27:03.096Z,61.23
2022-10-19T17:29:30.029Z,61.40
2022-10-19T17:31:57.203Z,61.41
2022-10-19T17:34:24.451Z,61.33
2022-10-19T17:36:51.256Z,61.46
2022-10-19T17:39:25.643Z,61.46
2022-10-19T17:42:01.644Z,61.56
2022-10-19T17:44:30.028Z,61.54
2022-10-19T17:46:57.075Z,61.54
2022-10-19T17:49:23.673Z,61.40
2022-10-19T17:51:53.072Z,61.46
2022-10-19T17:54:20.589Z,61.51
2022-10-19T17:56:47.305Z,61.55
2022-10-19T17:59:14.078Z,61.60
2022-10-19T18:01:41.129Z,61.66
2022-10-19T18:04:08.079Z,61.83
2022-10-19T18:06:36.689Z,61.97
2022-10-19T18:09:07.782Z,62.09
2022-10-19T18:11:39.144Z,62.50
2022-10-19T18:14:08.398Z,62.59
2022-10-19T18:16:39.394Z,63.00
2022-10-19T18:19:07.862Z,63.21
2022-10-19T18:21:41.235Z,63.63
2022-10-19T18:24:15.135Z,63.72
2022-10-19T18:26:43.162Z,64.22
2022-10-19T18:29:13.442Z,64.36
2022-10-19T18:31:40.885Z,64.72
2022-10-19T18:34:12.448Z,65.06
2022-10-19T18:36:39.446Z,65.43
2022-10-19T18:39:07.518Z,64.85
2022-10-19T18:41:34.387Z,65.32
2022-10-19T18:44:04.498Z,65.29
2022-10-19T18:46:34.038Z,66.06
2022-10-19T18:49:01.722Z,66.10
2022-10-19T18:51:29.151Z,66.11
2022-10-19T18:53:55.886Z,66.68
2022-10-19T18:56:24.020Z,66.95
2022-10-19T18:58:51.015Z,67.67
2022-10-19T19:01:20.480Z,67.51
2022-10-19T19:03:49.893Z,67.78
2022-10-19T19:06:19.147Z,68.11
2022-10-19T19:08:46.323Z,68.55
2022-10-19T19:11:14.546Z,68.56
2022-10-19T19:13:42.969Z,68.74
2022-10-19T19:16:09.835Z,68.97
2022-10-19T19:18:36.844Z,69.18
2022-10-19T19:21:12.679Z,69.06
2022-10-19T19:23:39.609Z,69.54
2022-10-19T19:26:07.519Z,69.71
2022-10-19T19:28:36.560Z,70.14
2022-10-19T19:31:07.465Z,70.33
2022-10-19T19:33:34.766Z,70.32
2022-10-19T19:36:05.266Z,70.77
2022-10-19T19:38:32.524Z,71.04
2022-10-19T19:40:59.264Z,70.63
2022-10-19T19:43:25.974Z,71.15
2022-10-19T19:45:57.858Z,71.08
2022-10-19T19:48:24.571Z,71.49
2022-10-19T19:50:51.206Z,71.07
2022-10-19T19:53:18.347Z,71.00
2022-10-19T19:55:49.200Z,71.08
2022-10-19T19:58:16.358Z,71.58
2022-10-19T20:00:43.625Z,71.67
2022-10-19T20:03:12.349Z,71.82
2022-10-19T20:05:40.452Z,72.07
2022-10-19T20:08:08.289Z,71.99
2022-10-19T20:10:39.838Z,72.26
2022-10-19T20:13:06.629Z,72.81
2022-10-19T20:15:33.747Z,72.69
2022-10-19T20:18:00.729Z,72.79
2022-10-19T20:20:27.437Z,72.88
2022-10-19T20:22:54.140Z,73.47
2022-10-19T20:25:21.347Z,73.22
2022-10-19T20:27:47.954Z,73.24
2022-10-19T20:30:14.598Z,73.60
2022-10-19T20:32:41.665Z,73.85
2022-10-19T20:35:08.724Z,74.04
2022-10-19T20:37:35.395Z,74.20
2022-10-19T20:40:08.136Z,74.67
2022-10-19T20:42:35.634Z,75.07
2022-10-19T20:45:03.071Z,75.10
2022-10-19T20:47:29.684Z,75.34
2022-10-19T20:49:56.492Z,75.32
2022-10-19T20:52:23.469Z,75.14
2022-10-19T20:54:50.169Z,75.09
2022-10-19T20:57:16.832Z,75.17
2022-10-19T20:59:45.624Z,75.28
2022-10-19T21:02:12.342Z,75.15
2022-10-19T21:04:39.173Z,75.15
2022-10-19T21:07:06.270Z,75.22
2022-10-19T21:09:32.971Z,75.16
2022-10-19T21:12:01.182Z,75.41
2022-10-19T21:14:30.104Z,75.43
2022-10-19T21:17:01.113Z,75.83
2022-10-19T21:19:29.590Z,75.90
2022-10-19T21:22:01.883Z,75.98
2022-10-19T21:24:34.512Z,76.12
2022-10-19T21:27:03.932Z,76.54
2022-10-19T21:29:31.026Z,76.09
2022-10-19T21:31:57.675Z,76.10
2022-10-19T21:34:26.831Z,76.04
2022-10-19T21:36:54.555Z,76.25
2022-10-19T21:39:22.001Z,76.43
2022-10-19T21:41:49.042Z,76.21
2022-10-19T21:44:17.740Z,76.28
2022-10-19T21:46:46.917Z,76.32
2022-10-19T21:49:13.952Z,76.28
2022-10-19T21:51:45.848Z,76.26
2022-10-19T21:54:15.818Z,76.52
2022-10-19T21:56:43.612Z,76.90
2022-10-19T21:59:12.182Z,76.82
2022-10-19T22:01:41.180Z,76.87
2022-10-19T22:04:14.311Z,76.79
2022-10-19T22:06:41.990Z,76.97
2022-10-19T22:09:12.744Z,76.84
2022-10-19T22:11:39.434Z,76.87
2022-10-19T22:14:06.043Z,76.66
2022-10-19T22:16:35.066Z,76.46
2022-10-19T22:19:01.873Z,76.39
2022-10-19T22:21:31.215Z,75.96
2022-10-19T22:24:04.331Z,75.65
2022-10-19T22:26:33.602Z,75.39
2022-10-19T22:29:01.764Z,75.09
2022-10-19T22:31:30.246Z,74.89
2022-10-19T22:33:56.979Z,74.79
2022-10-19T22:36:24.010Z,74.65
2022-10-19T22:38:50.664Z,74.20
2022-10-19T22:41:17.333Z,73.92
2022-10-19T22:43:44.327Z,73.83
2022-10-19T22:46:10.912Z,73.58
2022-10-19T22:48:37.532Z,73.49
2022-10-19T22:51:04.562Z,73.43
2022-10-19T22:53:31.219Z,73.38
2022-10-19T22:55:57.864Z,73.33
2022-10-19T22:58:24.759Z,73.37
2022-10-19T23:01:02.408Z,73.27
2022-10-19T23:03:29.397Z,73.51
2022-10-19T23:05:56.164Z,73.01
2022-10-19T23:08:22.794Z,72.98
2022-10-19T23:10:49.741Z,72.91
2022-10-19T23:13:16.476Z,72.82
2022-10-19T23:15:44.222Z,72.78
2022-10-19T23:18:11.894Z,72.67
2022-10-19T23:20:38.525Z,72.47
2022-10-19T23:23:05.471Z,72.43
2022-10-19T23:28:04.126Z,72.13
2022-10-19T23:30:30.699Z,72.02
2022-10-19T23:32:57.614Z,71.93
2022-10-19T23:35:24.289Z,71.91
2022-10-19T23:37:50.897Z,71.90
2022-10-19T23:40:17.784Z,71.88
2022-10-19T23:42:44.546Z,71.86
2022-10-19T23:45:13.099Z,71.77
2022-10-19T23:47:39.989Z,71.77
2022-10-19T23:50:06.798Z,71.81
2022-10-19T23:52:33.411Z,71.84
2022-10-19T23:55:00.260Z,71.87
2022-10-19T23:57:26.859Z,72.10
2022-10-19T23:59:53.487Z,72.12
